Time;durP1;ratioP1;P1;durP2;ratioP2;P2;SDS_P1;SDS_P2;PMS_P1;PMS_P2;Temp;Humidity;BMP_temperature;BMP_pressure;BME280_temperature;BME280_humidity;BME280_pressure;Samples;Min_cycle;Max_cycle;Signal;HPM_P1;HPM_P2
2021/08/21 00:01:19;;;;;;;9.35;6.15;;;;;;;18.46;83.49;100522.66;5133128;27;20119;-62
2021/08/21 00:03:45;;;;;;;14.40;6.78;;;;;;;18.47;83.63;100523.53;5135594;27;20023;-63
2021/08/21 00:06:11;;;;;;;10.63;6.20;;;;;;;18.51;84.00;100525.66;5135534;27;20026;-63
2021/08/21 00:08:37;;;;;;;13.30;6.68;;;;;;;18.46;84.41;100513.66;5135043;27;20033;-62
2021/08/21 00:11:03;;;;;;;10.70;6.22;;;;;;;18.53;84.45;100528.19;5135138;27;20030;-63
2021/08/21 00:13:28;;;;;;;10.00;6.50;;;;;;;18.54;84.77;100529.91;5134983;27;20123;-63
2021/08/21 00:15:54;;;;;;;10.82;6.68;;;;;;;18.55;84.11;100532.44;5135270;27;20047;-63
2021/08/21 00:18:20;;;;;;;11.60;5.97;;;;;;;18.55;84.21;100523.44;5134876;27;20478;-63
2021/08/21 00:20:45;;;;;;;9.20;5.90;;;;;;;18.54;84.29;100522.59;5134752;27;20038;-63
2021/08/21 00:23:11;;;;;;;9.80;6.15;;;;;;;18.48;84.35;100511.63;5134905;27;20106;-63
2021/08/21 00:25:36;;;;;;;11.52;5.70;;;;;;;18.56;84.03;100527.84;5134659;27;20019;-63
2021/08/21 00:28:02;;;;;;;9.63;5.82;;;;;;;18.55;83.32;100518.00;5134854;27;20031;-62
2021/08/21 00:30:27;;;;;;;8.30;5.80;;;;;;;18.55;83.49;100526.16;5134961;27;20033;-62
2021/08/21 00:32:53;;;;;;;10.07;5.28;;;;;;;18.53;83.00;100515.47;5134770;27;20550;-62
2021/08/21 00:35:18;;;;;;;9.27;6.10;;;;;;;18.52;83.81;100519.22;5134834;27;20019;-63
2021/08/21 00:37:44;;;;;;;9.88;5.88;;;;;;;18.49;83.96;100519.59;5134628;27;20042;-63
2021/08/21 00:40:10;;;;;;;7.93;5.53;;;;;;;18.49;84.37;100516.88;5135016;27;20053;-63
2021/08/21 00:42:36;;;;;;;9.30;5.82;;;;;;;18.52;84.80;100524.66;5134488;27;20109;-60
2021/08/21 00:45:04;;;;;;;10.35;6.25;;;;;;;18.51;84.72;100525.66;5134386;27;20119;-62
2021/08/21 00:47:30;;;;;;;9.18;5.47;;;;;;;18.51;85.20;100519.41;5133080;27;20083;-61
2021/08/21 00:49:55;;;;;;;10.13;6.03;;;;;;;18.51;85.26;100517.50;5133988;27;20102;-63
2021/08/21 00:52:21;;;;;;;11.25;5.50;;;;;;;18.50;85.00;100523.97;5134473;27;20106;-63
2021/08/21 00:54:47;;;;;;;9.85;5.63;;;;;;;18.48;84.76;100515.19;5134174;27;20102;-62
2021/08/21 00:57:13;;;;;;;8.07;5.07;;;;;;;18.47;84.90;100518.09;5134331;27;20108;-63
2021/08/21 00:59:40;;;;;;;12.32;5.38;;;;;;;18.49;84.85;100524.16;5134434;27;20046;-63
2021/08/21 01:02:07;;;;;;;9.75;5.68;;;;;;;18.47;85.06;100518.91;5134313;27;20458;-60
2021/08/21 01:04:35;;;;;;;8.43;5.60;;;;;;;18.45;85.10;100523.69;5133755;27;20030;-61
2021/08/21 01:07:08;;;;;;;11.30;5.72;;;;;;;18.45;85.35;100528.28;5133647;27;20034;-60
2021/08/21 01:09:39;;;;;;;9.38;5.00;;;;;;;18.42;85.02;100526.78;5133833;27;20027;-61
2021/08/21 01:12:16;;;;;;;9.65;5.60;;;;;;;18.40;84.93;100526.09;5133443;27;20038;-61
2021/08/21 01:14:42;;;;;;;9.00;6.00;;;;;;;18.39;84.92;100526.28;5133700;27;20040;-62
2021/08/21 01:17:08;;;;;;;7.65;5.13;;;;;;;18.35;84.68;100528.50;5133737;27;20471;-63
2021/08/21 01:19:39;;;;;;;9.20;5.40;;;;;;;18.32;84.37;100530.69;5133525;27;20084;-62
2021/08/21 01:22:11;;;;;;;8.73;5.90;;;;;;;18.27;83.99;100525.81;5133615;27;20057;-63
2021/08/21 01:24:37;;;;;;;14.85;5.50;;;;;;;18.23;84.22;100527.19;5133647;27;20023;-63
2021/08/21 01:27:03;;;;;;;11.85;5.93;;;;;;;18.16;84.10;100523.50;5133386;27;20019;-61
2021/08/21 01:29:28;;;;;;;19.55;6.43;;;;;;;18.16;84.27;100533.50;5132121;27;20038;-61
2021/08/21 01:31:54;;;;;;;14.77;5.70;;;;;;;18.12;84.65;100522.16;5133090;27;20035;-60
2021/08/21 01:34:20;;;;;;;10.90;5.85;;;;;;;18.10;84.98;100524.22;5133139;27;20043;-61
2021/08/21 01:36:49;;;;;;;12.02;5.70;;;;;;;18.04;85.37;100519.50;5133323;27;20030;-61
2021/08/21 01:39:17;;;;;;;11.57;6.10;;;;;;;18.04;85.55;100530.34;5133104;27;20048;-62
2021/08/21 01:41:42;;;;;;;10.45;5.80;;;;;;;18.00;85.19;100523.59;5133449;27;20478;-62
2021/08/21 01:44:11;;;;;;;11.60;5.35;;;;;;;17.96;85.82;100525.78;5133104;27;20092;-61
2021/08/21 01:46:36;;;;;;;9.40;5.25;;;;;;;17.93;86.17;100522.59;5133088;27;20133;-61
2021/08/21 01:49:07;;;;;;;7.72;5.90;;;;;;;17.90;85.89;100515.66;5133162;27;20044;-60
2021/08/21 01:51:32;;;;;;;8.15;5.20;;;;;;;17.84;86.49;100518.22;5133137;27;20019;-61
2021/08/21 01:53:58;;;;;;;9.27;5.53;;;;;;;17.87;86.41;100521.41;5132844;27;20518;-61
2021/08/21 01:56:25;;;;;;;9.82;5.50;;;;;;;17.86;86.54;100524.31;5133190;27;20019;-60
2021/08/21 01:58:51;;;;;;;8.77;5.30;;;;;;;17.80;86.95;100523.16;5132599;27;20027;-62
2021/08/21 02:01:17;;;;;;;9.45;5.55;;;;;;;17.83;86.92;100533.66;5132947;27;20041;-62
2021/08/21 02:03:46;;;;;;;9.70;5.35;;;;;;;17.81;86.82;100524.88;5132975;27;20031;-62
2021/08/21 02:06:14;;;;;;;9.73;5.35;;;;;;;17.78;86.60;100525.22;5133101;27;20026;-62
2021/08/21 02:08:40;;;;;;;8.60;5.55;;;;;;;17.78;86.36;100524.34;5133022;27;20045;-62
2021/08/21 02:11:06;;;;;;;8.95;5.53;;;;;;;17.73;86.21;100524.88;5132771;27;20019;-62
2021/08/21 02:13:31;;;;;;;8.20;5.25;;;;;;;17.73;85.91;100518.59;5132745;27;20102;-62
2021/08/21 02:15:57;;;;;;;8.20;5.38;;;;;;;17.71;86.02;100523.38;5132892;27;20058;-62
2021/08/21 02:18:22;;;;;;;9.05;5.80;;;;;;;17.69;86.30;100522.69;5132506;27;20066;-62
2021/08/21 02:20:48;;;;;;;8.30;5.15;;;;;;;17.55;85.99;100509.88;5132522;27;20062;-62
2021/08/21 02:23:13;;;;;;;8.82;5.55;;;;;;;17.60;85.92;100521.03;5132617;27;20023;-62
2021/08/21 02:25:39;;;;;;;7.13;4.90;;;;;;;17.62;85.81;100524.41;5132368;27;20065;-60
2021/08/21 02:28:14;;;;;;;10.85;5.70;;;;;;;17.60;85.96;100531.88;5132196;27;20023;-60
2021/08/21 02:30:41;;;;;;;6.32;5.10;;;;;;;17.56;85.94;100531.38;5131348;27;20123;-60
2021/08/21 02:33:07;;;;;;;7.80;5.43;;;;;;;17.59;86.37;100533.75;5132020;27;20072;-61
2021/08/21 02:35:33;;;;;;;9.38;5.45;;;;;;;17.57;86.26;100537.63;5132113;27;20094;-61
2021/08/21 02:38:01;;;;;;;9.30;5.43;;;;;;;17.54;86.43;100540.72;5132185;27;20047;-60
2021/08/21 02:40:27;;;;;;;6.97;5.43;;;;;;;17.52;85.88;100540.03;5131879;27;20022;-60
2021/08/21 02:42:53;;;;;;;8.50;5.20;;;;;;;17.49;85.92;100537.69;5131865;27;20022;-60
2021/08/21 02:45:18;;;;;;;7.75;5.40;;;;;;;17.48;86.58;100536.81;5131921;27;20031;-60
2021/08/21 02:47:44;;;;;;;8.40;5.57;;;;;;;17.42;86.63;100534.78;5131913;27;20023;-61
2021/08/21 02:50:10;;;;;;;7.30;5.80;;;;;;;17.42;86.80;100537.50;5132148;27;20027;-62
2021/08/21 02:52:36;;;;;;;8.70;5.60;;;;;;;17.38;86.88;100536.13;5131955;27;20015;-61
2021/08/21 02:55:01;;;;;;;8.73;5.65;;;;;;;17.37;86.67;100536.31;5131493;27;20030;-61
2021/08/21 02:57:27;;;;;;;8.93;5.93;;;;;;;17.35;86.73;100547.31;5131870;27;20011;-62
2021/08/21 02:59:52;;;;;;;9.73;5.72;;;;;;;17.32;86.89;100541.41;5131684;27;20497;-62
2021/08/21 03:02:18;;;;;;;8.75;5.95;;;;;;;17.30;86.86;100549.72;5131777;27;20535;-62
2021/08/21 03:04:44;;;;;;;7.55;5.90;;;;;;;17.25;87.03;100549.38;5131693;27;20067;-62
2021/08/21 03:07:09;;;;;;;7.28;5.07;;;;;;;17.19;87.24;100541.94;5132332;27;20050;-62
2021/08/21 03:09:35;;;;;;;6.70;5.55;;;;;;;17.22;87.03;100548.91;5131477;27;20072;-62
2021/08/21 03:12:00;;;;;;;8.48;5.63;;;;;;;17.22;87.90;100551.59;5131703;27;20023;-62
2021/08/21 03:14:26;;;;;;;9.88;5.75;;;;;;;17.22;88.12;100557.03;5131921;27;20466;-62
2021/08/21 03:16:51;;;;;;;9.43;5.50;;;;;;;17.12;88.18;100537.38;5131807;27;20428;-62
2021/08/21 03:19:17;;;;;;;9.93;6.20;;;;;;;17.16;88.07;100544.97;5131451;27;20466;-62
2021/08/21 03:21:42;;;;;;;10.18;5.03;;;;;;;17.13;88.22;100550.78;5131723;27;20030;-62
2021/08/21 03:24:08;;;;;;;9.50;6.25;;;;;;;17.08;87.99;100549.56;5131502;27;20026;-60
2021/08/21 03:26:33;;;;;;;10.27;6.22;;;;;;;17.11;87.54;100554.66;5131323;27;20118;-60
2021/08/21 03:28:58;;;;;;;9.23;6.32;;;;;;;17.08;87.85;100555.84;5131388;27;20023;-60
2021/08/21 03:31:24;;;;;;;10.52;6.47;;;;;;;17.05;88.59;100553.47;5131629;27;20031;-62
2021/08/21 03:33:49;;;;;;;11.98;6.30;;;;;;;17.00;89.02;100550.44;5131144;27;20015;-62
2021/08/21 03:36:15;;;;;;;10.90;6.35;;;;;;;16.98;88.92;100557.88;5132515;27;20023;-62
2021/08/21 03:38:41;;;;;;;11.00;5.63;;;;;;;16.98;88.98;100566.00;5135248;27;20027;-62
2021/08/21 03:41:06;;;;;;;9.85;6.28;;;;;;;17.01;89.54;100567.53;5135379;27;20071;-60
2021/08/21 03:43:32;;;;;;;8.95;5.78;;;;;;;17.00;89.53;100566.69;5135586;27;20393;-61
2021/08/21 03:45:57;;;;;;;8.98;5.90;;;;;;;16.99;89.06;100562.28;5135301;27;20041;-60
2021/08/21 03:48:22;;;;;;;8.48;6.10;;;;;;;16.98;89.40;100562.44;5135442;27;20071;-60
2021/08/21 03:50:48;;;;;;;11.73;6.43;;;;;;;16.99;89.39;100578.53;5135277;27;20031;-61
2021/08/21 03:53:13;;;;;;;9.38;6.28;;;;;;;16.94;89.21;100570.09;5135353;27;20034;-61
2021/08/21 03:55:39;;;;;;;8.80;5.90;;;;;;;16.96;89.68;100572.63;5135943;27;20015;-61
2021/08/21 03:58:04;;;;;;;11.30;6.25;;;;;;;16.90;89.21;100559.75;5133834;27;20030;-61
2021/08/21 04:00:30;;;;;;;10.57;5.57;;;;;;;16.95;88.70;100569.06;5135226;27;20397;-61
2021/08/21 04:02:55;;;;;;;8.52;5.63;;;;;;;16.92;88.78;100572.09;5134845;27;20026;-61
2021/08/21 04:05:21;;;;;;;9.50;6.35;;;;;;;16.92;88.79;100572.09;5133706;27;20027;-61
2021/08/21 04:07:47;;;;;;;12.23;6.72;;;;;;;16.88;89.62;100573.47;5135084;27;20291;-62
2021/08/21 04:10:12;;;;;;;12.20;7.25;;;;;;;16.92;90.05;100582.94;5133805;27;20034;-61
2021/08/21 04:12:38;;;;;;;16.23;7.22;;;;;;;16.92;90.78;100580.22;5135049;27;20054;-61
2021/08/21 04:15:04;;;;;;;11.50;6.53;;;;;;;16.91;90.95;100583.09;5134996;27;20047;-61
2021/08/21 04:17:29;;;;;;;10.07;6.40;;;;;;;16.93;90.83;100587.34;5134861;27;20413;-61
2021/08/21 04:19:55;;;;;;;10.85;6.63;;;;;;;16.92;90.63;100579.38;5133267;27;20026;-62
2021/08/21 04:22:20;;;;;;;8.23;6.70;;;;;;;16.99;91.00;100580.41;5134740;27;20545;-61
2021/08/21 04:24:46;;;;;;;10.90;6.93;;;;;;;17.04;91.53;100587.03;5134480;27;20037;-62
2021/08/21 04:27:12;;;;;;;9.80;6.63;;;;;;;17.09;91.53;100586.50;5134865;27;20020;-61
2021/08/21 04:29:37;;;;;;;10.45;6.80;;;;;;;17.15;91.27;100583.13;5134928;27;20038;-61
2021/08/21 04:32:04;;;;;;;10.07;7.28;;;;;;;17.20;91.25;100597.84;5134390;27;20064;-62
2021/08/21 04:34:34;;;;;;;10.63;7.00;;;;;;;17.21;91.38;100587.84;5134371;27;20019;-62
2021/08/21 04:37:02;;;;;;;11.80;6.20;;;;;;;17.32;91.18;100601.91;5134358;27;20069;-61
2021/08/21 04:39:28;;;;;;;10.23;6.57;;;;;;;17.43;90.78;100600.75;5134298;27;20443;-62
2021/08/21 04:41:53;;;;;;;13.75;7.47;;;;;;;17.52;90.30;100597.84;5134265;27;20044;-62
2021/08/21 04:44:18;;;;;;;13.10;7.90;;;;;;;17.60;90.62;100603.25;5134255;27;20051;-61
2021/08/21 04:46:44;;;;;;;13.48;7.50;;;;;;;17.69;90.67;100595.94;5134083;27;20031;-62
2021/08/21 04:49:10;;;;;;;12.20;7.20;;;;;;;17.74;89.64;100599.81;5133043;27;20023;-61
2021/08/21 04:51:35;;;;;;;12.65;7.30;;;;;;;17.88;88.84;100604.53;5134228;27;20045;-62
2021/08/21 04:54:01;;;;;;;12.90;7.28;;;;;;;17.96;88.17;100612.66;5133952;27;20027;-62
2021/08/21 04:56:26;;;;;;;10.25;6.45;;;;;;;18.06;88.43;100615.19;5134124;27;20019;-62
2021/08/21 04:58:51;;;;;;;11.48;7.10;;;;;;;18.14;87.60;100609.69;5134008;27;20019;-61
2021/08/21 05:01:17;;;;;;;19.23;8.23;;;;;;;18.20;86.81;100606.28;5133908;27;20030;-61
2021/08/21 05:03:42;;;;;;;17.27;7.55;;;;;;;18.27;86.13;100607.28;5134302;27;20030;-62
2021/08/21 05:06:08;;;;;;;12.38;7.57;;;;;;;18.27;85.37;100609.13;5133772;27;20056;-61
2021/08/21 05:08:33;;;;;;;14.65;7.57;;;;;;;18.34;86.33;100607.41;5133799;27;20027;-61
2021/08/21 05:10:59;;;;;;;16.20;8.40;;;;;;;18.44;86.44;100608.91;5133735;27;20467;-61
2021/08/21 05:13:24;;;;;;;12.38;8.95;;;;;;;18.53;86.00;100601.56;5132612;27;20109;-63
2021/08/21 05:15:50;;;;;;;13.00;8.05;;;;;;;18.71;85.18;100607.56;5133749;27;20487;-63
2021/08/21 05:18:23;;;;;;;10.70;8.25;;;;;;;18.87;84.53;100612.91;5133997;27;20061;-63
2021/08/21 05:20:52;;;;;;;11.93;8.43;;;;;;;19.02;84.01;100606.47;5132208;27;20030;-63
2021/08/21 05:23:18;;;;;;;14.05;8.68;;;;;;;19.20;83.33;100612.47;5133590;27;20052;-63
2021/08/21 05:25:46;;;;;;;11.60;8.27;;;;;;;19.35;83.01;100609.81;5133790;27;20028;-63
2021/08/21 05:28:13;;;;;;;17.30;8.50;;;;;;;19.56;82.36;100608.09;5133577;27;20084;-63
2021/08/21 05:30:40;;;;;;;11.82;8.30;;;;;;;19.76;81.79;100603.78;5132160;27;20113;-63
2021/08/21 05:33:09;;;;;;;11.90;8.43;;;;;;;19.96;80.75;100599.47;5133277;27;20023;-63
2021/08/21 05:35:35;;;;;;;14.85;9.10;;;;;;;20.19;79.66;100604.84;5133258;27;20019;-64
2021/08/21 05:38:00;;;;;;;16.35;8.38;;;;;;;20.41;79.19;100598.41;5133240;27;20107;-61
2021/08/21 05:40:26;;;;;;;13.02;8.05;;;;;;;20.68;78.03;100608.59;5133420;27;20484;-61
2021/08/21 05:42:51;;;;;;;16.35;8.40;;;;;;;20.92;77.33;100610.13;5131522;27;20015;-61
2021/08/21 05:45:17;;;;;;;12.05;8.35;;;;;;;21.16;77.13;100605.16;5133551;27;20038;-61
2021/08/21 05:47:42;;;;;;;13.40;8.15;;;;;;;21.39;75.74;100604.94;5132121;27;20409;-61
2021/08/21 05:50:08;;;;;;;11.38;8.13;;;;;;;21.56;74.43;100598.97;5132851;27;20023;-62
2021/08/21 05:52:34;;;;;;;11.90;7.95;;;;;;;21.78;73.45;100605.25;5133108;27;20023;-62
2021/08/21 05:54:59;;;;;;;10.88;7.68;;;;;;;21.98;72.30;100612.53;5132831;27;20030;-62
2021/08/21 05:57:25;;;;;;;12.95;8.05;;;;;;;22.19;70.93;100612.44;5133051;27;20023;-61
2021/08/21 05:59:50;;;;;;;9.07;7.18;;;;;;;22.39;69.65;100601.63;5132560;27;20031;-60
2021/08/21 06:02:15;;;;;;;9.57;6.85;;;;;;;22.60;68.07;100600.69;5132988;27;20019;-61
2021/08/21 06:04:41;;;;;;;8.52;6.13;;;;;;;22.83;67.00;100601.16;5132437;27;20486;-60
2021/08/21 06:07:06;;;;;;;10.07;6.07;;;;;;;23.03;65.72;100602.03;5132654;27;20459;-61
2021/08/21 06:09:32;;;;;;;11.52;6.65;;;;;;;23.17;65.30;100596.38;5132895;27;20029;-61
2021/08/21 06:11:57;;;;;;;7.22;6.53;;;;;;;23.48;64.33;100606.75;5132393;27;20023;-61
2021/08/21 06:14:23;;;;;;;10.25;7.13;;;;;;;23.66;63.04;100596.81;5132635;27;20053;-61
2021/08/21 06:16:48;;;;;;;13.18;6.75;;;;;;;23.83;62.35;100595.31;5132849;27;20084;-61
2021/08/21 06:19:14;;;;;;;8.48;6.15;;;;;;;24.07;61.65;100605.66;5132222;27;20027;-61
2021/08/21 06:21:42;;;;;;;10.05;6.40;;;;;;;24.27;60.95;100594.59;5132467;27;20027;-61
2021/08/21 06:24:08;;;;;;;7.53;5.80;;;;;;;24.50;60.19;100597.66;5132411;27;20419;-61
2021/08/21 06:26:34;;;;;;;9.70;5.85;;;;;;;24.76;58.57;100605.78;5132311;27;20119;-61
2021/08/21 06:28:59;;;;;;;7.90;4.65;;;;;;;24.91;57.93;100605.50;5132245;27;20101;-61
2021/08/21 06:31:25;;;;;;;8.00;4.70;;;;;;;24.98;57.49;100606.34;5132422;27;20068;-61
2021/08/21 06:33:50;;;;;;;10.93;5.20;;;;;;;25.14;57.15;100608.53;5127848;27;20401;-61
2021/08/21 06:36:15;;;;;;;6.63;5.32;;;;;;;25.21;56.58;100598.34;5129061;27;20015;-61
2021/08/21 06:38:41;;;;;;;6.95;5.07;;;;;;;25.39;56.12;100612.16;5132318;27;20019;-62
2021/08/21 06:41:06;;;;;;;7.00;5.10;;;;;;;25.47;55.60;100601.75;5130717;27;20031;-62
2021/08/21 06:43:32;;;;;;;9.25;5.10;;;;;;;25.55;55.19;100614.38;5131982;27;20464;-61
2021/08/21 06:45:57;;;;;;;10.82;5.10;;;;;;;25.64;55.05;100604.78;5130442;27;20035;-61
2021/08/21 06:48:23;;;;;;;11.13;4.68;;;;;;;25.74;54.80;100605.09;5131909;27;20027;-61
2021/08/21 06:50:49;;;;;;;7.40;5.10;;;;;;;25.81;54.57;100603.13;5132438;27;20124;-61
2021/08/21 06:53:15;;;;;;;6.53;4.47;;;;;;;25.94;54.34;100609.34;5132196;27;20027;-62
2021/08/21 06:55:41;;;;;;;5.47;4.20;;;;;;;26.09;53.96;100612.59;5132187;27;20023;-61
2021/08/21 06:58:06;;;;;;;5.05;4.05;;;;;;;26.19;53.21;100601.06;5131981;27;20136;-61
2021/08/21 07:00:33;;;;;;;8.40;4.35;;;;;;;26.36;52.72;100613.13;5130949;27;20466;-61
2021/08/21 07:02:58;;;;;;;8.70;3.83;;;;;;;26.44;52.76;100599.09;5131722;27;20092;-61
2021/08/21 07:05:24;;;;;;;4.60;4.03;;;;;;;26.65;52.39;100615.13;5131735;27;20035;-62
2021/08/21 07:07:49;;;;;;;5.35;3.85;;;;;;;26.77;51.59;100607.78;5131964;27;20015;-63
2021/08/21 07:10:15;;;;;;;9.98;4.75;;;;;;;26.88;51.03;100615.22;5131207;27;20053;-63
2021/08/21 07:12:40;;;;;;;9.65;4.10;;;;;;;27.02;50.40;100607.63;5131418;27;20023;-62
2021/08/21 07:15:07;;;;;;;6.97;4.20;;;;;;;27.15;50.14;100604.69;5131667;27;20537;-62
2021/08/21 07:17:33;;;;;;;7.05;4.00;;;;;;;27.30;49.49;100610.59;5131593;27;20012;-62
2021/08/21 07:19:58;;;;;;;11.18;3.83;;;;;;;27.38;49.29;100611.13;5131351;27;20019;-62
2021/08/21 07:22:24;;;;;;;7.47;3.70;;;;;;;27.50;47.91;100609.22;5131559;27;20474;-62
2021/08/21 07:24:49;;;;;;;6.22;3.47;;;;;;;27.65;47.78;100606.00;5131808;27;20030;-61
2021/08/21 07:27:15;;;;;;;6.18;4.03;;;;;;;27.77;47.26;100610.44;5130212;28;20438;-62
2021/08/21 07:29:40;;;;;;;4.53;3.80;;;;;;;27.87;47.03;100613.47;5131669;27;20038;-62
2021/08/21 07:32:06;;;;;;;5.40;3.88;;;;;;;27.99;46.77;100611.53;5131313;27;20047;-63
2021/08/21 07:34:32;;;;;;;6.60;4.13;;;;;;;28.09;47.06;100609.00;5131432;27;20074;-63
2021/08/21 07:36:57;;;;;;;4.43;3.67;;;;;;;28.22;46.60;100608.78;5131355;27;20148;-62
2021/08/21 07:39:23;;;;;;;6.35;3.50;;;;;;;28.35;46.42;100610.44;5131562;27;20548;-63
2021/08/21 07:41:48;;;;;;;6.72;4.57;;;;;;;28.48;45.97;100621.22;5131759;27;20061;-63
2021/08/21 07:44:14;;;;;;;5.65;4.00;;;;;;;28.58;45.82;100607.63;5131277;27;20051;-63
2021/08/21 07:46:39;;;;;;;10.20;4.82;;;;;;;28.81;43.97;100623.28;5131322;27;20062;-63
2021/08/21 07:49:05;;;;;;;8.20;4.07;;;;;;;28.84;44.12;100623.63;5131220;27;20023;-63
2021/08/21 07:51:31;;;;;;;5.68;3.85;;;;;;;28.93;44.54;100624.06;5131474;27;20043;-61
2021/08/21 07:53:56;;;;;;;7.93;4.60;;;;;;;29.05;44.38;100633.19;5131307;27;20053;-61
2021/08/21 07:56:22;;;;;;;5.90;4.47;;;;;;;29.14;42.61;100626.19;5131808;27;20042;-61
2021/08/21 07:58:47;;;;;;;10.27;4.43;;;;;;;29.20;43.15;100623.25;5131338;27;20046;-61
2021/08/21 08:01:12;;;;;;;4.93;3.97;;;;;;;29.28;43.16;100627.53;5131695;27;20075;-62
2021/08/21 08:03:38;;;;;;;6.90;4.30;;;;;;;29.38;42.99;100617.50;5131060;27;20015;-62
2021/08/21 08:06:04;;;;;;;7.22;4.15;;;;;;;29.37;43.01;100607.53;5131201;27;20035;-62
2021/08/21 08:08:29;;;;;;;4.28;3.85;;;;;;;29.55;42.22;100611.97;5131449;27;20019;-63
2021/08/21 08:10:55;;;;;;;5.18;4.13;;;;;;;29.77;42.12;100633.13;5131744;27;20049;-62
2021/08/21 08:13:20;;;;;;;5.00;3.20;;;;;;;29.92;41.78;100640.84;5131704;27;20023;-62
2021/08/21 08:15:46;;;;;;;9.20;3.83;;;;;;;30.08;41.25;100635.28;5131262;27;20031;-63
2021/08/21 08:18:11;;;;;;;4.88;3.78;;;;;;;30.22;40.14;100633.88;5131096;27;20110;-63
2021/08/21 08:20:37;;;;;;;7.05;3.88;;;;;;;30.39;40.31;100631.03;5131640;27;20122;-63
2021/08/21 08:23:03;;;;;;;7.80;3.17;;;;;;;30.56;39.98;100632.66;5133462;27;20021;-64
2021/08/21 08:25:30;;;;;;;3.97;3.22;;;;;;;30.76;39.77;100634.03;5134964;27;20478;-64
2021/08/21 08:27:56;;;;;;;3.63;3.15;;;;;;;31.03;38.80;100629.38;5134975;27;20019;-64
2021/08/21 08:30:21;;;;;;;3.53;3.22;;;;;;;31.08;38.64;100640.50;5135121;27;20044;-64
2021/08/21 08:32:47;;;;;;;3.85;2.95;;;;;;;31.06;38.44;100624.16;5133364;27;20103;-64
2021/08/21 08:35:12;;;;;;;5.97;3.47;;;;;;;31.19;38.55;100629.28;5133206;27;20504;-64
2021/08/21 08:37:39;;;;;;;5.10;3.05;;;;;;;31.29;38.05;100634.94;5134631;27;20054;-63
2021/08/21 08:40:06;;;;;;;3.75;3.13;;;;;;;31.36;37.75;100634.72;5134326;27;20027;-64
2021/08/21 08:42:32;;;;;;;4.53;2.80;;;;;;;31.34;37.40;100625.84;5132954;27;20470;-62
2021/08/21 08:45:00;;;;;;;5.82;3.08;;;;;;;31.34;37.11;100625.84;5134033;27;20052;-64
2021/08/21 08:47:26;;;;;;;5.85;3.15;;;;;;;31.47;37.14;100631.78;5134248;27;20035;-63
2021/08/21 08:49:52;;;;;;;3.95;2.95;;;;;;;31.58;36.90;100630.78;5134413;27;20019;-63
2021/08/21 08:52:19;;;;;;;3.67;2.88;;;;;;;31.58;36.80;100630.78;5132995;27;20114;-63
2021/08/21 08:54:45;;;;;;;4.45;2.90;;;;;;;31.65;36.30;100634.16;5134368;27;20744;-63
2021/08/21 08:57:31;;;;;;;7.07;3.22;;;;;;;31.74;36.61;100629.81;5133920;27;20023;-62
2021/08/21 08:59:57;;;;;;;3.35;2.90;;;;;;;31.79;36.40;100635.38;5133747;27;20534;-62
2021/08/21 09:02:37;;;;;;;4.72;3.17;;;;;;;31.81;35.97;100632.38;5133085;27;20103;-63
2021/08/21 09:05:07;;;;;;;8.57;3.38;;;;;;;31.75;36.32;100625.94;5133747;27;20087;-62
2021/08/21 09:07:52;;;;;;;3.90;3.30;;;;;;;31.71;36.20;100630.34;5133782;27;20043;-62
2021/08/21 09:10:33;;;;;;;4.18;3.47;;;;;;;31.71;35.88;100624.78;5133621;27;20046;-63
2021/08/21 09:13:09;;;;;;;4.85;3.17;;;;;;;31.73;35.92;100622.59;5133582;27;20094;-62
2021/08/21 09:15:37;;;;;;;3.28;2.97;;;;;;;31.76;35.61;100621.22;5132490;27;20035;-62
2021/08/21 09:18:07;;;;;;;5.30;3.00;;;;;;;31.77;35.94;100629.28;5133446;27;20072;-62
2021/08/21 09:20:50;;;;;;;3.83;3.10;;;;;;;31.80;36.11;100625.13;5133612;27;20489;-62
2021/08/21 09:23:33;;;;;;;3.40;3.10;;;;;;;31.84;36.08;100617.97;5133504;27;20043;-64
2021/08/21 09:26:06;;;;;;;5.40;3.30;;;;;;;31.87;35.67;100621.06;5133415;27;20285;-64
2021/08/21 09:28:33;;;;;;;6.43;3.22;;;;;;;31.88;35.48;100617.19;5133547;27;20492;-64
2021/08/21 09:31:06;;;;;;;3.38;3.03;;;;;;;31.92;35.66;100618.31;5133076;27;20497;-64
2021/08/21 09:33:33;;;;;;;4.90;3.28;;;;;;;31.91;35.79;100613.88;5132644;27;20025;-64
2021/08/21 09:35:59;;;;;;;5.45;3.15;;;;;;;31.93;35.82;100616.38;5133277;27;20091;-64
2021/08/21 09:38:33;;;;;;;3.20;2.90;;;;;;;31.96;35.92;100613.91;5133515;27;20099;-63
2021/08/21 09:41:07;;;;;;;6.13;2.47;;;;;;;31.93;36.26;100608.06;5133408;27;20462;-62
2021/08/21 09:43:35;;;;;;;6.50;3.50;;;;;;;31.96;36.06;100615.84;5132969;27;20066;-63
2021/08/21 09:46:15;;;;;;;3.38;2.90;;;;;;;31.89;35.61;100612.47;5131570;27;20049;-63
2021/08/21 09:49:08;;;;;;;5.20;3.03;;;;;;;31.80;35.17;100614.91;5131756;27;20386;-63
2021/08/21 09:51:40;;;;;;;5.05;3.83;;;;;;;31.79;35.32;100607.63;5131052;27;20038;-64
2021/08/21 09:54:24;;;;;;;3.65;3.22;;;;;;;31.75;35.52;100608.44;5133383;27;20428;-64
2021/08/21 09:56:54;;;;;;;5.15;3.35;;;;;;;31.62;35.52;100606.09;5133325;27;20023;-64
2021/08/21 09:59:35;;;;;;;5.93;3.90;;;;;;;31.52;35.88;100606.88;5132867;27;20027;-64
2021/08/21 10:02:04;;;;;;;4.88;2.90;;;;;;;31.35;36.35;100597.00;5132724;27;20015;-64
2021/08/21 10:04:30;;;;;;;7.32;3.17;;;;;;;31.28;36.80;100610.25;5131435;27;20096;-64
2021/08/21 10:06:56;;;;;;;6.40;3.50;;;;;;;31.14;36.73;100604.25;5132677;27;20023;-64
2021/08/21 10:09:23;;;;;;;3.83;3.30;;;;;;;31.00;37.11;100605.78;5132940;27;20027;-64
2021/08/21 10:11:52;;;;;;;5.35;3.28;;;;;;;30.90;37.25;100605.69;5132596;27;20295;-64
2021/08/21 10:14:19;;;;;;;4.60;2.92;;;;;;;30.76;37.10;100604.41;5132737;27;20098;-64
2021/08/21 10:16:48;;;;;;;4.78;3.53;;;;;;;30.70;36.96;100602.66;5132529;27;20027;-64
2021/08/21 10:19:21;;;;;;;4.63;3.47;;;;;;;30.68;37.18;100596.53;5131006;27;20418;-64
2021/08/21 10:21:52;;;;;;;4.10;3.10;;;;;;;30.66;37.29;100598.69;5132376;27;20023;-64
2021/08/21 10:24:41;;;;;;;4.35;3.58;;;;;;;30.69;37.31;100587.09;5132373;27;20255;-64
2021/08/21 10:27:15;;;;;;;5.15;3.47;;;;;;;30.69;37.20;100589.88;5132099;27;20355;-64
2021/08/21 10:29:40;;;;;;;;;;;;;;;30.60;36.65;100591.44;5132739;27;20049;-64
2021/08/21 10:32:30;;;;;;;4.32;3.53;;;;;;;30.52;37.20;100595.50;5132119;27;19907;-64
2021/08/21 10:34:55;;;;;;;4.30;3.17;;;;;;;30.44;37.68;100589.59;5132285;27;20019;-64
2021/08/21 10:37:40;;;;;;;4.22;3.45;;;;;;;30.42;37.80;100586.22;5132121;27;20027;-64
2021/08/21 10:40:27;;;;;;;5.32;3.15;;;;;;;30.36;37.87;100584.47;5132188;27;20436;-64
2021/08/21 10:42:53;;;;;;;4.20;3.53;;;;;;;30.35;37.74;100583.66;5131780;27;20023;-64
2021/08/21 10:45:58;;;;;;;4.10;3.30;;;;;;;30.40;37.23;100585.63;5130530;27;20495;-64
2021/08/21 10:48:23;;;;;;;;;;;;;;;30.43;36.28;100591.50;5069021;28;20379;-64
2021/08/21 10:50:49;;;;;;;3.17;2.65;;;;;;;30.52;36.14;100589.13;5051653;28;19957;-64
2021/08/21 10:53:41;;;;;;;4.95;3.15;;;;;;;30.58;36.29;100582.56;5098240;27;20043;-64
2021/08/21 10:56:07;;;;;;;3.50;3.00;;;;;;;30.63;35.92;100579.84;5128694;27;20096;-64
2021/08/21 10:58:55;;;;;;;3.88;2.65;;;;;;;30.62;35.82;100586.47;5130719;27;20113;-64
2021/08/21 11:01:22;;;;;;;3.03;2.72;;;;;;;30.63;35.23;100585.41;5132028;27;20019;-65
2021/08/21 11:03:49;;;;;;;4.45;2.90;;;;;;;30.63;35.16;100573.47;5131565;27;20039;-64
2021/08/21 11:06:15;;;;;;;4.00;2.72;;;;;;;30.65;34.76;100580.41;5131576;27;20030;-64
2021/08/21 11:08:40;;;;;;;3.83;2.72;;;;;;;30.69;34.75;100586.28;5131709;27;20043;-64
2021/08/21 11:11:20;;;;;;;4.35;2.97;;;;;;;30.73;35.34;100581.94;5131460;27;20023;-64
2021/08/21 11:14:06;;;;;;;3.78;2.40;;;;;;;30.72;35.48;100581.06;5131657;27;20470;-64
2021/08/21 11:16:55;;;;;;;2.67;2.28;;;;;;;30.74;35.34;100581.66;5132032;27;20480;-64
2021/08/21 11:19:35;;;;;;;4.43;2.55;;;;;;;30.76;34.70;100585.03;5131782;27;20474;-64
2021/08/21 11:22:10;;;;;;;2.53;2.30;;;;;;;30.78;34.59;100579.22;5130441;27;20027;-65
2021/08/21 11:24:37;;;;;;;2.60;2.28;;;;;;;30.82;33.91;100574.84;5131572;27;20076;-64
2021/08/21 11:27:24;;;;;;;3.63;2.42;;;;;;;30.83;33.56;100582.03;5131584;27;20019;-64